createdAt,value
2018-07-16T00:00:44.224Z,4.40
2018-07-16T00:03:13.092Z,4.73
2018-07-16T00:05:42.000Z,4.13
2018-07-16T00:08:10.897Z,4.60
2018-07-16T00:10:39.945Z,4.33
2018-07-16T00:13:09.951Z,4.40
2018-07-16T00:15:38.829Z,4.90
2018-07-16T00:18:07.663Z,4.97
2018-07-16T00:20:36.442Z,4.70
2018-07-16T00:23:05.351Z,4.93
2018-07-16T00:25:35.075Z,4.87
2018-07-16T00:28:04.514Z,4.97
2018-07-16T00:30:33.952Z,4.47
2018-07-16T00:33:03.132Z,4.67
2018-07-16T00:35:32.089Z,4.70
2018-07-16T00:38:00.858Z,4.90
2018-07-16T00:40:30.141Z,6.17
2018-07-16T00:42:59.594Z,5.40
2018-07-16T00:45:28.437Z,5.30
2018-07-16T00:47:57.795Z,4.97
2018-07-16T00:50:26.693Z,6.13
2018-07-16T00:52:55.637Z,5.30
2018-07-16T00:55:24.994Z,5.83
2018-07-16T00:57:53.872Z,5.20
2018-07-16T01:00:23.935Z,5.20
2018-07-16T01:02:54.945Z,6.33
2018-07-16T01:05:23.728Z,6.00
2018-07-16T01:07:52.630Z,5.53
2018-07-16T01:10:21.801Z,5.60
2018-07-16T01:12:50.663Z,5.90
2018-07-16T01:15:20.042Z,6.57
2018-07-16T01:17:49.504Z,6.00
2018-07-16T01:20:18.834Z,6.43
2018-07-16T01:22:47.926Z,6.00
2018-07-16T01:25:16.760Z,6.30
2018-07-16T01:27:46.854Z,5.37
2018-07-16T01:30:15.715Z,5.33
2018-07-16T01:32:44.844Z,6.10
2018-07-16T01:35:13.645Z,5.80
2018-07-16T01:37:42.445Z,5.10
2018-07-16T01:40:11.894Z,5.63
2018-07-16T01:42:41.628Z,4.77
2018-07-16T01:45:10.541Z,6.07
2018-07-16T01:47:40.033Z,5.53
2018-07-16T01:50:08.877Z,6.53
2018-07-16T01:52:37.939Z,5.93
2018-07-16T01:55:07.062Z,6.50
2018-07-16T01:57:35.870Z,5.63
2018-07-16T02:00:04.709Z,5.80
2018-07-16T02:02:33.532Z,6.43
2018-07-16T02:05:02.337Z,5.17
2018-07-16T02:07:31.472Z,5.53
2018-07-16T02:10:00.791Z,5.60
2018-07-16T02:12:29.779Z,5.50
2018-07-16T02:14:59.225Z,5.30
2018-07-16T02:17:28.010Z,5.00
2018-07-16T02:19:56.792Z,6.83
2018-07-16T02:22:26.259Z,6.17
2018-07-16T02:24:55.010Z,5.90
2018-07-16T02:27:24.209Z,6.33
2018-07-16T02:29:53.417Z,6.30
2018-07-16T02:32:22.185Z,6.60
2018-07-16T02:34:51.333Z,5.63
2018-07-16T02:37:20.374Z,5.60
2018-07-16T02:39:49.957Z,6.97
2018-07-16T02:42:18.723Z,6.50
2018-07-16T02:44:47.563Z,6.53
2018-07-16T02:47:16.820Z,7.20
2018-07-16T02:49:45.989Z,5.73
2018-07-16T02:52:15.087Z,6.80
2018-07-16T02:54:44.453Z,6.23
2018-07-16T02:57:13.473Z,7.30
2018-07-16T02:59:42.646Z,5.70
2018-07-16T03:02:12.803Z,5.90
2018-07-16T03:04:42.646Z,6.50
2018-07-16T03:07:12.472Z,6.10
2018-07-16T03:09:42.204Z,6.57
2018-07-16T03:12:12.139Z,6.73
2018-07-16T03:14:42.326Z,6.27
2018-07-16T03:17:11.492Z,5.90
2018-07-16T03:19:40.589Z,6.83
2018-07-16T03:22:09.452Z,7.40
2018-07-16T03:24:38.603Z,6.40
2018-07-16T03:27:07.745Z,7.27
2018-07-16T03:29:36.816Z,7.20
2018-07-16T03:32:05.861Z,7.60
2018-07-16T03:34:35.016Z,6.33
2018-07-16T03:37:04.276Z,6.63
2018-07-16T03:39:33.058Z,7.33
2018-07-16T03:42:02.117Z,7.30
2018-07-16T03:44:31.533Z,6.33
2018-07-16T03:47:00.324Z,7.77
2018-07-16T03:49:29.129Z,7.60
2018-07-16T03:51:58.221Z,7.13
2018-07-16T03:54:27.024Z,6.60
2018-07-16T03:56:56.284Z,7.43
2018-07-16T03:59:25.123Z,7.37
2018-07-16T04:01:53.907Z,7.50
2018-07-16T04:04:25.588Z,7.10
2018-07-16T04:06:54.646Z,8.03
2018-07-16T04:09:23.452Z,7.43
2018-07-16T04:11:52.865Z,8.13
2018-07-16T04:14:21.936Z,7.60
2018-07-16T04:16:51.012Z,6.87
2018-07-16T04:19:20.136Z,7.63
2018-07-16T04:21:48.889Z,7.60
2018-07-16T04:24:17.755Z,7.30
2018-07-16T04:26:46.606Z,7.83
2018-07-16T04:29:15.374Z,7.60
2018-07-16T04:31:44.779Z,7.13
2018-07-16T04:34:13.597Z,6.93
2018-07-16T04:36:43.261Z,7.67
2018-07-16T04:39:12.245Z,7.60
2018-07-16T04:41:41.772Z,7.30
2018-07-16T04:44:11.124Z,7.93
2018-07-16T04:46:40.110Z,7.50
2018-07-16T04:49:09.219Z,7.20
2018-07-16T04:51:38.315Z,7.40
2018-07-16T04:54:07.360Z,7.50
2018-07-16T04:56:36.189Z,6.70
2018-07-16T04:59:05.376Z,7.33
2018-07-16T05:01:34.213Z,7.37
2018-07-16T05:04:05.804Z,7.47
2018-07-16T05:06:34.603Z,8.30
2018-07-16T05:09:03.764Z,7.00
2018-07-16T05:11:33.048Z,7.20
2018-07-16T05:14:02.438Z,6.90
2018-07-16T05:16:31.289Z,6.97
2018-07-16T05:19:00.098Z,7.50
2018-07-16T05:21:29.341Z,7.23
2018-07-16T05:23:58.499Z,7.13
2018-07-16T05:26:29.333Z,6.83
2018-07-16T05:28:58.487Z,6.70
2018-07-16T05:31:27.395Z,7.60
2018-07-16T05:33:56.284Z,7.40
2018-07-16T05:36:27.603Z,8.00
2018-07-16T05:38:58.966Z,6.80
2018-07-16T05:41:27.760Z,6.77
2018-07-16T05:43:56.868Z,7.60
2018-07-16T05:46:25.954Z,7.80
2018-07-16T05:48:54.989Z,8.17
2018-07-16T05:51:24.123Z,7.37
2018-07-16T05:53:52.897Z,7.47
2018-07-16T05:56:22.281Z,7.77
2018-07-16T05:58:51.583Z,7.97
2018-07-16T06:01:20.768Z,8.50
2018-07-16T06:03:49.531Z,6.90
2018-07-16T06:06:18.940Z,7.43
2018-07-16T06:08:48.089Z,7.13
2018-07-16T06:11:17.088Z,6.30
2018-07-16T06:13:46.153Z,7.33
2018-07-16T06:16:15.068Z,7.23
2018-07-16T06:18:43.912Z,6.90
2018-07-16T06:21:12.731Z,7.30
2018-07-16T06:23:41.853Z,7.20
2018-07-16T06:26:10.662Z,7.63
2018-07-16T06:28:40.108Z,6.33
2018-07-16T06:31:08.953Z,6.60
2018-07-16T06:33:38.368Z,7.00
2018-07-16T06:36:07.912Z,6.73
2018-07-16T06:38:37.428Z,6.27
2018-07-16T06:41:06.680Z,6.00
2018-07-16T06:43:35.308Z,6.30
2018-07-16T06:46:04.414Z,4.90
2018-07-16T06:48:33.241Z,6.13
2018-07-16T06:51:02.119Z,4.60
2018-07-16T06:53:31.163Z,5.97
2018-07-16T06:56:00.854Z,5.57
2018-07-16T06:58:35.780Z,5.87
2018-07-16T07:01:05.021Z,5.30
2018-07-16T07:03:33.852Z,5.47
2018-07-16T07:06:03.261Z,4.80
2018-07-16T07:08:32.966Z,5.57
2018-07-16T07:11:01.696Z,5.07
2018-07-16T07:13:30.425Z,4.10
2018-07-16T07:15:59.502Z,5.00
2018-07-16T07:18:29.048Z,3.93
2018-07-16T07:20:57.807Z,4.70
2018-07-16T07:23:26.823Z,4.23
2018-07-16T07:25:55.891Z,3.50
2018-07-16T07:28:24.914Z,3.87
2018-07-16T07:30:53.980Z,4.00
2018-07-16T07:33:22.991Z,4.27
2018-07-16T07:35:52.113Z,3.90
2018-07-16T07:38:21.502Z,4.33
2018-07-16T07:40:50.271Z,4.20
2018-07-16T07:43:19.333Z,3.70
2018-07-16T07:45:48.128Z,3.77
2018-07-16T07:48:17.792Z,3.20
2018-07-16T07:50:46.627Z,3.73
2018-07-16T07:53:15.418Z,3.30
2018-07-16T07:55:44.205Z,2.70
2018-07-16T07:58:13.531Z,3.10
2018-07-16T08:00:42.506Z,2.70
2018-07-16T08:03:11.387Z,2.37
2018-07-16T08:05:40.192Z,2.23
2018-07-16T08:08:08.907Z,3.00
2018-07-16T08:10:38.167Z,3.30
2018-07-16T08:13:07.198Z,3.17
2018-07-16T08:15:36.293Z,2.90
2018-07-16T08:18:05.789Z,2.87
2018-07-16T08:20:35.273Z,3.13
2018-07-16T08:23:04.188Z,2.43
2018-07-16T08:25:33.280Z,2.50
2018-07-16T08:28:02.129Z,2.57
2018-07-16T08:30:30.925Z,2.57
2018-07-16T08:33:00.587Z,2.40
2018-07-16T08:35:29.705Z,2.87
2018-07-16T08:37:58.749Z,2.20
2018-07-16T08:40:27.908Z,2.67
2018-07-16T08:42:56.684Z,2.60
2018-07-16T08:45:25.484Z,2.47
2018-07-16T08:47:54.635Z,2.50
2018-07-16T08:50:23.665Z,2.50
2018-07-16T08:52:53.039Z,2.70
2018-07-16T08:55:21.770Z,2.40
2018-07-16T08:57:51.342Z,2.50
2018-07-16T09:00:20.371Z,3.40
2018-07-16T09:02:49.807Z,2.63
2018-07-16T09:05:18.544Z,2.07
2018-07-16T09:07:47.627Z,1.73
2018-07-16T09:10:17.161Z,1.90
2018-07-16T09:12:45.949Z,2.40
2018-07-16T09:15:15.175Z,1.97
2018-07-16T09:17:43.988Z,2.10
2018-07-16T09:20:12.719Z,2.13
2018-07-16T09:22:41.454Z,2.10
2018-07-16T09:28:30.108Z,2.43
2018-07-16T09:33:38.445Z,1.97
2018-07-16T09:36:21.561Z,2.40
2018-07-16T09:38:57.112Z,2.57
2018-07-16T09:41:31.627Z,1.90
2018-07-16T09:44:02.967Z,2.03
2018-07-16T09:46:32.163Z,2.10
2018-07-16T09:49:11.905Z,2.20
2018-07-16T09:51:41.368Z,1.90
2018-07-16T09:54:55.767Z,1.87
2018-07-16T09:57:35.857Z,2.70
2018-07-16T10:00:32.002Z,3.03
2018-07-16T10:08:55.869Z,2.37
2018-07-16T10:11:28.326Z,1.40
2018-07-16T10:14:06.652Z,2.53
2018-07-16T10:16:35.879Z,1.97
2018-07-16T10:19:12.636Z,2.63
2018-07-16T10:21:42.804Z,2.03
2018-07-16T10:24:12.017Z,2.50
2018-07-16T10:26:41.051Z,2.53
2018-07-16T10:29:10.455Z,2.10
2018-07-16T10:31:39.937Z,2.20
2018-07-16T10:34:09.060Z,2.80
2018-07-16T10:36:38.319Z,1.90
2018-07-16T10:39:08.319Z,2.47
2018-07-16T10:41:38.523Z,2.30
2018-07-16T10:44:08.015Z,2.20
2018-07-16T10:46:38.188Z,2.10
2018-07-16T10:49:07.660Z,2.13
2018-07-16T10:51:37.525Z,2.13
2018-07-16T10:54:08.834Z,2.70
2018-07-16T10:56:39.590Z,2.27
2018-07-16T10:59:09.562Z,2.13
2018-07-16T11:01:38.882Z,2.47
2018-07-16T11:04:07.665Z,2.33
2018-07-16T11:06:36.648Z,2.10
2018-07-16T11:09:25.026Z,2.90
2018-07-16T11:11:59.548Z,1.90
2018-07-16T11:14:28.762Z,2.40
2018-07-16T11:16:59.131Z,1.90
2018-07-16T11:19:33.779Z,2.40
2018-07-16T11:22:03.018Z,2.00
2018-07-16T11:24:32.148Z,2.30
2018-07-16T11:27:01.605Z,2.10
2018-07-16T11:29:30.764Z,2.10
2018-07-16T11:31:59.669Z,2.00
2018-07-16T11:34:28.895Z,2.17
2018-07-16T11:36:57.903Z,2.67
2018-07-16T11:39:26.882Z,2.33
2018-07-16T11:41:55.748Z,2.07
2018-07-16T11:44:24.784Z,3.20
2018-07-16T11:46:53.498Z,2.90
2018-07-16T11:49:22.824Z,3.27
2018-07-16T11:51:51.847Z,3.10
2018-07-16T11:54:20.561Z,3.33
2018-07-16T11:57:04.027Z,2.87
2018-07-16T11:59:37.815Z,2.60
2018-07-16T12:02:21.764Z,2.90
2018-07-16T12:04:51.252Z,3.33
2018-07-16T12:07:25.808Z,3.00
2018-07-16T12:09:56.585Z,2.90
2018-07-16T12:12:41.535Z,3.47
2018-07-16T12:15:10.638Z,2.90
2018-07-16T12:17:40.047Z,2.87
2018-07-16T12:24:15.479Z,2.20
2018-07-16T12:26:44.501Z,2.30
2018-07-16T12:29:16.573Z,2.70
2018-07-16T12:31:45.416Z,2.80
2018-07-16T12:34:14.697Z,2.40
2018-07-16T12:36:43.681Z,2.27
2018-07-16T12:39:12.905Z,2.03
2018-07-16T12:41:49.421Z,2.00
2018-07-16T12:44:18.491Z,1.83
2018-07-16T12:46:48.186Z,2.37
2018-07-16T12:49:17.321Z,2.10
2018-07-16T12:51:47.264Z,2.10
2018-07-16T12:54:18.963Z,2.37
2018-07-16T12:59:27.449Z,2.10
2018-07-16T13:04:45.131Z,2.33
2018-07-16T13:07:21.437Z,1.90
2018-07-16T13:09:50.501Z,1.60
2018-07-16T13:12:21.735Z,2.30
2018-07-16T13:15:00.299Z,2.27
2018-07-16T13:17:31.426Z,1.97
2018-07-16T13:20:07.912Z,1.70
2018-07-16T13:22:39.226Z,2.50
2018-07-16T13:25:22.087Z,2.00
2018-07-16T13:27:52.473Z,2.40
2018-07-16T13:30:34.973Z,1.77
2018-07-16T13:33:26.550Z,2.03
2018-07-16T13:35:55.900Z,2.90
2018-07-16T13:38:37.750Z,2.30
2018-07-16T13:41:07.647Z,2.07
2018-07-16T13:43:36.653Z,2.10
2018-07-16T13:46:06.040Z,1.90
2018-07-16T13:48:35.210Z,2.47
2018-07-16T13:51:04.911Z,2.13
2018-07-16T13:53:34.993Z,1.93
2018-07-16T13:56:03.736Z,2.30
2018-07-16T13:58:35.013Z,2.80
2018-07-16T14:01:03.921Z,2.20
2018-07-16T14:03:33.533Z,2.67
2018-07-16T14:06:02.919Z,2.20
2018-07-16T14:08:32.027Z,2.00
2018-07-16T14:11:01.698Z,2.70
2018-07-16T14:13:30.413Z,2.83
2018-07-16T14:15:59.288Z,2.37
2018-07-16T14:18:28.103Z,2.90
2018-07-16T14:20:56.962Z,2.10
2018-07-16T14:23:26.107Z,2.33
2018-07-16T14:25:54.901Z,2.30
2018-07-16T14:28:24.600Z,3.00
2018-07-16T14:30:53.330Z,2.77
2018-07-16T14:33:22.511Z,2.33
2018-07-16T14:35:51.290Z,2.80
2018-07-16T14:38:21.326Z,2.60
2018-07-16T14:40:50.081Z,2.93
2018-07-16T14:43:18.922Z,2.07
2018-07-16T14:45:48.287Z,1.90
2018-07-16T14:48:17.557Z,2.83
2018-07-16T14:50:46.657Z,2.40
2018-07-16T14:53:39.155Z,2.77
2018-07-16T14:56:22.566Z,2.10
2018-07-16T14:58:51.407Z,2.20
2018-07-16T15:01:20.444Z,2.50
2018-07-16T15:03:49.357Z,2.33
2018-07-16T15:06:18.669Z,2.87
2018-07-16T15:08:47.786Z,1.90
2018-07-16T15:11:16.898Z,2.03
2018-07-16T15:13:45.619Z,2.50
2018-07-16T15:16:14.705Z,2.20
2018-07-16T15:18:43.839Z,2.90
2018-07-16T15:21:12.842Z,2.10
2018-07-16T15:23:41.671Z,2.17
2018-07-16T15:26:10.759Z,2.10
2018-07-16T15:28:39.538Z,1.77
2018-07-16T15:31:08.532Z,2.60
2018-07-16T15:33:37.985Z,1.90
2018-07-16T15:36:07.131Z,2.40
2018-07-16T15:38:36.183Z,2.30
2018-07-16T15:41:05.146Z,2.43
2018-07-16T15:43:33.962Z,2.70
2018-07-16T15:46:03.206Z,2.00
2018-07-16T15:48:32.226Z,1.60
2018-07-16T15:51:00.985Z,2.30
2018-07-16T15:53:30.331Z,1.90
2018-07-16T15:55:59.093Z,1.80
2018-07-16T15:58:28.079Z,1.90
2018-07-16T16:00:57.188Z,2.00
2018-07-16T16:03:26.232Z,2.60
2018-07-16T16:05:54.957Z,2.37
2018-07-16T16:08:24.041Z,2.10
2018-07-16T16:10:53.072Z,2.23
2018-07-16T16:13:21.882Z,2.00
2018-07-16T16:15:50.854Z,2.30
2018-07-16T16:18:20.240Z,2.30
2018-07-16T16:20:49.035Z,2.00
2018-07-16T16:23:18.840Z,1.97
2018-07-16T16:25:47.554Z,1.63
2018-07-16T16:28:16.310Z,1.70
2018-07-16T16:30:45.875Z,1.90
2018-07-16T16:33:14.707Z,1.63
2018-07-16T16:35:43.448Z,2.57
2018-07-16T16:38:12.245Z,2.07
2018-07-16T16:40:40.976Z,1.90
2018-07-16T16:43:09.887Z,1.83
2018-07-16T16:45:38.612Z,2.03
2018-07-16T16:48:07.702Z,1.90
2018-07-16T16:50:36.754Z,1.70
2018-07-16T16:53:05.745Z,2.07
2018-07-16T16:55:34.850Z,1.57
2018-07-16T16:58:03.872Z,1.90
2018-07-16T17:00:32.580Z,2.60
2018-07-16T17:03:03.411Z,1.57
2018-07-16T17:05:32.398Z,1.90
2018-07-16T17:08:01.138Z,1.90
2018-07-16T17:10:30.378Z,1.60
2018-07-16T17:13:01.455Z,1.50
2018-07-16T17:15:30.512Z,2.10
2018-07-16T17:17:59.291Z,1.40
2018-07-16T17:20:28.074Z,2.17
2018-07-16T17:22:56.939Z,2.23
2018-07-16T17:25:26.288Z,1.90
2018-07-16T17:27:56.605Z,2.10
2018-07-16T17:30:25.338Z,1.80
2018-07-16T17:32:55.453Z,2.23
2018-07-16T17:35:24.581Z,1.93
2018-07-16T17:37:53.389Z,2.30
2018-07-16T17:40:22.125Z,2.00
2018-07-16T17:42:50.963Z,1.80
2018-07-16T17:45:19.986Z,1.90
2018-07-16T17:47:48.971Z,1.80
2018-07-16T17:50:17.841Z,2.10
2018-07-16T17:52:46.967Z,2.87
2018-07-16T17:55:16.027Z,2.20
2018-07-16T17:57:45.162Z,2.33
2018-07-16T18:00:13.978Z,2.47
2018-07-16T18:02:42.823Z,2.43
2018-07-16T18:05:11.918Z,2.63
2018-07-16T18:07:40.871Z,2.60
2018-07-16T18:10:09.913Z,1.90
2018-07-16T18:12:40.015Z,2.77
2018-07-16T18:15:09.180Z,2.50
2018-07-16T18:17:38.533Z,3.13
2018-07-16T18:20:07.362Z,2.57
2018-07-16T18:22:36.447Z,2.33
2018-07-16T18:25:05.435Z,2.60
2018-07-16T18:27:34.632Z,2.83
2018-07-16T18:30:04.302Z,2.07
2018-07-16T18:32:33.359Z,2.60
2018-07-16T18:35:02.148Z,2.47
2018-07-16T18:37:31.505Z,2.80
2018-07-16T18:40:00.848Z,2.83
2018-07-16T18:42:29.625Z,3.17
2018-07-16T18:44:58.956Z,2.70
2018-07-16T18:47:28.370Z,2.40
2018-07-16T18:49:57.168Z,3.23
2018-07-16T18:52:25.904Z,3.50
2018-07-16T18:54:54.779Z,2.80
2018-07-16T18:57:23.867Z,2.70
2018-07-16T18:59:52.971Z,2.70
2018-07-16T19:02:22.130Z,2.40
2018-07-16T19:04:51.554Z,3.00
2018-07-16T19:07:23.047Z,2.40
2018-07-16T19:09:52.918Z,3.20
2018-07-16T19:12:21.715Z,2.97
2018-07-16T19:14:50.654Z,3.10
2018-07-16T19:17:21.065Z,2.60
2018-07-16T19:19:50.644Z,3.10
2018-07-16T19:22:20.695Z,2.90
2018-07-16T19:24:49.705Z,2.63
2018-07-16T19:27:19.107Z,3.00
2018-07-16T19:29:48.190Z,3.03
2018-07-16T19:32:16.960Z,2.60
2018-07-16T19:34:46.723Z,3.50
2018-07-16T19:37:15.555Z,3.00
2018-07-16T19:39:44.380Z,2.53
2018-07-16T19:42:13.511Z,2.10
2018-07-16T19:44:42.540Z,2.50
2018-07-16T19:47:13.266Z,3.10
2018-07-16T19:49:42.409Z,3.40
2018-07-16T19:52:11.657Z,3.20
2018-07-16T19:54:41.039Z,2.77
2018-07-16T19:57:10.485Z,3.20
2018-07-16T19:59:39.296Z,3.10
2018-07-16T20:02:09.001Z,2.37
2018-07-16T20:04:38.392Z,2.50
2018-07-16T20:07:07.197Z,2.60
2018-07-16T20:09:36.506Z,3.13
2018-07-16T20:12:05.592Z,3.13
2018-07-16T20:14:34.668Z,3.00
2018-07-16T20:17:03.401Z,2.87
2018-07-16T20:19:32.963Z,2.93
2018-07-16T20:22:01.704Z,3.33
2018-07-16T20:24:30.475Z,3.20
2018-07-16T20:26:59.374Z,2.67
2018-07-16T20:29:28.221Z,2.57
2018-07-16T20:31:57.146Z,3.00
2018-07-16T20:34:26.225Z,3.60
2018-07-16T20:36:55.028Z,3.10
2018-07-16T20:39:23.831Z,3.00
2018-07-16T20:41:52.644Z,3.03
2018-07-16T20:44:21.482Z,3.37
2018-07-16T20:46:50.244Z,3.33
2018-07-16T20:49:19.585Z,3.17
2018-07-16T20:51:48.980Z,3.13
2018-07-16T20:54:18.349Z,3.20
2018-07-16T20:56:47.429Z,3.33
2018-07-16T20:59:16.496Z,3.33
2018-07-16T21:01:45.490Z,3.23
2018-07-16T21:04:14.288Z,3.37
2018-07-16T21:06:43.321Z,2.80
2018-07-16T21:09:12.305Z,3.73
2018-07-16T21:11:41.075Z,2.70
2018-07-16T21:14:09.933Z,3.17
2018-07-16T21:16:39.345Z,3.30
2018-07-16T21:19:08.613Z,4.40
2018-07-16T21:21:37.355Z,3.50
2018-07-16T21:24:06.422Z,3.10
2018-07-16T21:26:35.261Z,3.53
2018-07-16T21:29:04.326Z,3.23
2018-07-16T21:31:35.499Z,3.50
2018-07-16T21:34:04.315Z,4.70
2018-07-16T21:36:33.434Z,3.47
2018-07-16T21:39:02.335Z,4.07
2018-07-16T21:41:31.052Z,4.50
2018-07-16T21:44:00.220Z,4.10
2018-07-16T21:46:29.547Z,4.20
2018-07-16T21:48:58.300Z,3.87
2018-07-16T21:51:27.057Z,4.63
2018-07-16T21:53:55.809Z,3.53
2018-07-16T21:56:24.542Z,4.27
2018-07-16T21:58:53.305Z,5.00
2018-07-16T22:01:22.422Z,4.80
2018-07-16T22:03:51.401Z,4.20
2018-07-16T22:06:20.399Z,4.30
2018-07-16T22:08:49.389Z,4.73
2018-07-16T22:11:18.705Z,5.03
2018-07-16T22:13:47.458Z,5.03
2018-07-16T22:16:16.639Z,4.60
2018-07-16T22:18:46.064Z,5.30
2018-07-16T22:21:14.806Z,4.70
2018-07-16T22:23:43.884Z,5.10
2018-07-16T22:26:12.916Z,4.83
2018-07-16T22:28:41.789Z,5.47
2018-07-16T22:31:10.842Z,4.93
2018-07-16T22:33:39.814Z,5.60
2018-07-16T22:36:08.618Z,6.00
2018-07-16T22:38:37.394Z,5.30
2018-07-16T22:41:06.399Z,5.60
2018-07-16T22:43:35.480Z,6.17
2018-07-16T22:46:04.555Z,5.13
2018-07-16T22:48:34.562Z,5.53
2018-07-16T22:51:05.192Z,5.77
2018-07-16T22:53:34.765Z,5.23
2018-07-16T22:56:04.370Z,6.60
2018-07-16T22:58:34.333Z,5.60
2018-07-16T23:01:03.368Z,4.93
2018-07-16T23:03:32.298Z,5.10
2018-07-16T23:06:01.038Z,5.77
2018-07-16T23:08:30.434Z,5.67
2018-07-16T23:10:59.197Z,5.10
2018-07-16T23:13:27.903Z,5.87
2018-07-16T23:15:56.603Z,6.10
2018-07-16T23:18:26.175Z,6.23
2018-07-16T23:20:55.208Z,6.20
2018-07-16T23:23:24.004Z,5.30
2018-07-16T23:25:52.742Z,5.40
2018-07-16T23:28:21.823Z,4.83
2018-07-16T23:30:50.559Z,5.80
2018-07-16T23:33:19.699Z,5.73
2018-07-16T23:35:48.639Z,5.50
2018-07-16T23:38:17.460Z,5.43
2018-07-16T23:40:46.563Z,6.43
2018-07-16T23:43:15.898Z,6.90
2018-07-16T23:45:46.106Z,6.20
2018-07-16T23:48:14.919Z,7.00
2018-07-16T23:50:43.647Z,6.23
2018-07-16T23:53:12.424Z,6.80
2018-07-16T23:55:41.228Z,6.00
2018-07-16T23:58:10.253Z,6.67
